Weather at Transener S.A. Heliport

Public forecast

Using degrees Celsius for public forecast. Weather courtesy of forecast.io.

Closest aviation weather report (METAR) to Transener S.A. Heliport

Closest report is San Fernando Airport, 26.3 nm (48.6 km) SE.

2024/05/29 08:00 (retrieved 36 minutes ago)

SADF 290800Z VRB01KT 9000 SCT002 OVC037 11/11 Q1024

Closest aviation forecast (TAF) to Transener S.A. Heliport

Closest forecast is San Fernando Airport, 26.3 nm (48.6 km) SE.

2024/05/29 06:03 (retrieved 3 hours ago)

TAF SADF 290500Z 2906/3006 07005KT 2000 BR OVC001 TX15/2918Z TN10/2911Z TEMPO 2906/2911 36005KT 0800 BCFG OVC004 BECMG 2912/2914 36010KT 9999 NSW BKN035 BECMG 3002/3004 4000 BR